Tuskegee Institute, AL

7:54 AM CDT on August 20, 2019 (GMT -0500)
Little Texas | | Change Station
Active Advisory: Dense Fog Advisory

Elev 471 ft 32.45 °N, 85.59 °W | Updated 6 seconds ago

Clear
Clear
78.5 °F
Feels Like 82 °F
N
0.7
Wind Variable Wind from NNW
Gusts 2.3 mph

Today
High -- | Low -- °F
--% Chance of Precip.
Yesterday
High -- | Low -- °F
Precip. -- in
Pressure 30.18 in
Visibility 10.0 miles
Clouds Clear
Heat Index 82 °F
Dew Point 78 °F
Humidity 100%
Rainfall 0.03 in
Snow Depth Not available.
6:09 AM 7:21 PM
Waning Gibbous, 79% visible
METAR KAUO 201156Z AUTO 00000KT 10SM CLR 22/21 A3015 RMK AO2 SLP218 70008 T02220211 10233 20211 52021
Pressure 30.18 in
Visibility 10.0 miles
Clouds Clear
Heat Index 82 °F
Dew Point 78 °F
Humidity 100%
Rainfall 0.03 in
Snow Depth Not available.
6:09 AM 7:21 PM
Waning Gibbous, 79% visible
METAR KAUO 201156Z AUTO 00000KT 10SM CLR 22/21 A3015 RMK AO2 SLP218 70008 T02220211 10233 20211 52021

Get Your Daily Forecast Email!

Thanks for signing up!

Be on the lookout for a verification email in your inbox.

You'll start receiving severe weather alerts in your inbox..

×

10-Day Weather Forecast

Almanac

Astronomy

Aug. 20, 2019 Rise Set
Actual Time
Civil Twilight
Nautical Twilight
Astronomical Twilight
Moon
Length of Visible Light
Length of Day
Tomorrow will be .
, % of the Moon is Illuminated

Today's Extremes

State Highs State Lows

Community

WunderPhotos

Category 6

Welcome to Category 6. This is the collective home for Weather Underground's featured writeups by Dr. Jeff Masters (right), Bob Henson (left), Chris Burt, and other regular contributors.

Nearby

Air Quality

  Air Quality AQ Index Pollutant
Not available.

Snow Depth

Station Depth Elevation

Earthquake Activity

City Distance Mag. Time & Date
Minimum magnitude displayed is 2.5.

Coastal Water Temperatures

Place Temperature

Stations

Nearby Weather Stations

Station Location Temp. Windchill Dew Point Humidity Wind Precip. Elev Updated Type
                   

Watches & Warnings

Dense Fog Advisory
Issued: 6:01 AM CDT Aug. 20, 2019 – National Weather Service

... Dense fog advisory in effect until 8 am CDT this morning...

The National Weather Service in Birmingham has issued a dense fog
advisory, which is in effect until 8 am CDT this morning.

* Visibility... will drop to one quarter of a mile or less.

* Impacts... of the lower visibilities will make travel hazardous
at times.

Precautionary/preparedness actions...

A dense fog advisory means visibilities will frequently be
reduced to a quarter mile or less. If driving, slow down, use
your low beam headlights, and leave plenty of distance ahead of
you.